Terminal Aerodrome Forecast
Issued by NWS Jacksonville, FL

Home | Current Version | Previous Version | Text Only | Print | Product List | Glossary On
Versions: 1 2 3 4 5 6 7 8 9 10 11 12 13 14 15 16 17 18 19 20 21 22 23
000
FTUS42 KJAX 020319 AAC
TAFJAX
TAF AMD
KJAX 020319Z 0203/0224 00000KT P6SM SCT030 BKN250
     FM020700 00000KT 4SM BR SCT100 SCT250
     FM021300 23006KT P6SM SCT030 SCT100 SCT250
     FM021700 20005KT P6SM VCTS SCT035CB=

USA.gov is the U.S. government's official web portal to all federal, state and local government web resources and services.